Time;durP1;ratioP1;P1;durP2;ratioP2;P2;SDS_P1;SDS_P2;PMS_P1;PMS_P2;Temp;Humidity;BMP_temperature;BMP_pressure;BME280_temperature;BME280_humidity;BME280_pressure;Samples;Min_cycle;Max_cycle;Signal;HPM_P1;HPM_P2
2021/01/22 00:00:06;;;;;;;51.85;26.05;;;8.50;86.00;;;;;;5092513;28;20052;-66
2021/01/22 00:02:32;;;;;;;51.45;28.15;;;8.50;86.30;;;;;;5094021;28;20039;-66
2021/01/22 00:04:57;;;;;;;79.07;45.13;;;8.50;86.20;;;;;;5093807;28;20020;-67
2021/01/22 00:07:23;;;;;;;72.97;45.40;;;8.50;86.10;;;;;;5092594;28;20077;-66
2021/01/22 00:09:49;;;;;;;59.95;36.80;;;8.50;86.00;;;;;;5094147;28;20122;-66
2021/01/22 00:12:14;;;;;;;49.03;28.70;;;8.50;86.20;;;;;;5095154;28;20464;-65
2021/01/22 00:14:40;;;;;;;34.63;20.80;;;8.50;86.20;;;;;;5094394;28;20036;-64
2021/01/22 00:17:06;;;;;;;39.00;22.52;;;8.50;85.80;;;;;;5095378;28;20024;-67
2021/01/22 00:19:31;;;;;;;34.45;19.35;;;8.50;85.60;;;;;;5095509;28;20032;-65
2021/01/22 00:21:57;;;;;;;48.85;23.52;;;8.50;85.90;;;;;;5095578;28;20028;-64
2021/01/22 00:24:23;;;;;;;66.68;39.50;;;8.40;86.10;;;;;;5095079;28;20028;-69
2021/01/22 00:26:49;;;;;;;61.40;34.00;;;8.40;86.10;;;;;;5095365;28;20465;-66
2021/01/22 00:29:14;;;;;;;69.68;42.85;;;8.30;86.20;;;;;;5093046;28;20024;-66
2021/01/22 00:31:40;;;;;;;65.15;32.83;;;8.30;86.60;;;;;;5093410;28;20434;-66
2021/01/22 00:34:06;;;;;;;72.47;36.00;;;8.30;86.90;;;;;;5091246;28;20051;-68
2021/01/22 00:36:31;;;;;;;71.20;35.58;;;8.30;86.60;;;;;;5093284;28;20028;-68
2021/01/22 00:38:57;;;;;;;67.30;33.15;;;8.30;86.50;;;;;;5093837;28;20028;-66
2021/01/22 00:41:23;;;;;;;64.93;33.00;;;8.30;86.40;;;;;;5092841;28;20103;-66
2021/01/22 00:43:49;;;;;;;54.90;28.20;;;8.30;86.20;;;;;;5093493;28;20024;-67
2021/01/22 00:46:14;;;;;;;47.30;25.33;;;8.30;86.30;;;;;;5093409;28;20394;-66
2021/01/22 00:48:40;;;;;;;50.35;26.08;;;8.10;86.90;;;;;;5091715;28;20043;-66
2021/01/22 00:51:06;;;;;;;73.45;37.13;;;8.10;87.30;;;;;;5093258;28;20020;-66
2021/01/22 00:53:31;;;;;;;52.85;31.88;;;8.10;87.00;;;;;;5093222;28;20102;-65
2021/01/22 00:55:57;;;;;;;51.42;31.35;;;8.10;86.90;;;;;;5092958;28;20503;-65
2021/01/22 00:58:23;;;;;;;49.88;29.80;;;8.00;86.80;;;;;;5093846;28;20024;-65
2021/01/22 01:00:49;;;;;;;48.92;29.00;;;8.00;86.70;;;;;;5094538;28;20044;-66
2021/01/22 01:03:14;;;;;;;52.53;31.33;;;8.00;86.80;;;;;;5094000;28;20476;-65
2021/01/22 01:05:40;;;;;;;56.20;33.17;;;8.00;87.50;;;;;;5095065;28;20043;-65
2021/01/22 01:08:06;;;;;;;53.03;26.85;;;8.00;87.60;;;;;;5094148;28;20024;-65
2021/01/22 01:10:31;;;;;;;45.78;25.42;;;7.90;87.60;;;;;;5094062;28;20416;-66
2021/01/22 01:12:57;;;;;;;47.40;24.23;;;7.90;88.20;;;;;;5093104;28;20054;-64
2021/01/22 01:15:23;;;;;;;41.50;22.15;;;7.80;89.00;;;;;;5092775;28;20028;-65
2021/01/22 01:17:49;;;;;;;38.33;20.52;;;7.70;89.60;;;;;;5093864;28;20069;-67
2021/01/22 01:20:14;;;;;;;37.60;20.75;;;7.60;89.60;;;;;;5094230;28;20028;-66
2021/01/22 01:22:40;;;;;;;46.38;22.92;;;7.50;89.60;;;;;;5092533;28;20071;-63
2021/01/22 01:25:07;;;;;;;38.30;19.75;;;7.40;90.20;;;;;;5094467;28;20116;-68
2021/01/22 01:27:33;;;;;;;32.78;17.48;;;7.50;90.30;;;;;;5094130;28;20054;-66
2021/01/22 01:29:58;;;;;;;34.85;18.58;;;7.40;90.10;;;;;;5093893;28;20457;-63
2021/01/22 01:32:24;;;;;;;30.02;17.25;;;7.40;90.10;;;;;;5093739;28;20039;-66
2021/01/22 01:34:50;;;;;;;42.88;23.98;;;7.40;90.00;;;;;;5093736;28;20020;-68
2021/01/22 01:37:16;;;;;;;35.88;19.55;;;7.40;90.00;;;;;;5092840;28;20024;-66
2021/01/22 01:39:41;;;;;;;32.65;19.05;;;7.40;89.80;;;;;;5093714;28;20058;-65
2021/01/22 01:42:07;;;;;;;45.72;26.63;;;7.30;90.00;;;;;;5092810;28;20050;-70
2021/01/22 01:44:33;;;;;;;42.58;24.38;;;7.30;90.30;;;;;;5093464;28;20445;-65
2021/01/22 01:46:59;;;;;;;50.45;28.65;;;7.30;90.00;;;;;;5092497;28;20024;-63
2021/01/22 01:49:25;;;;;;;44.33;24.20;;;7.30;90.30;;;;;;5092504;28;20036;-64
2021/01/22 01:51:51;;;;;;;38.10;22.77;;;7.30;90.20;;;;;;5093498;28;20050;-65
2021/01/22 01:54:19;;;;;;;32.20;19.83;;;7.20;90.40;;;;;;5093847;28;20440;-68
2021/01/22 01:56:46;;;;;;;31.52;16.58;;;7.20;90.20;;;;;;5093807;28;20103;-64
2021/01/22 01:59:14;;;;;;;25.73;15.48;;;7.10;90.20;;;;;;5091877;28;20083;-68
2021/01/22 02:01:40;;;;;;;26.75;15.45;;;7.10;90.60;;;;;;5092469;28;20380;-66
2021/01/22 02:04:06;;;;;;;28.10;15.93;;;7.00;90.60;;;;;;5093956;28;20027;-65
2021/01/22 02:06:31;;;;;;;27.45;14.98;;;6.90;90.70;;;;;;5093692;28;20032;-66
2021/01/22 02:08:58;;;;;;;28.95;14.93;;;6.90;91.00;;;;;;5094192;28;20059;-67
2021/01/22 02:11:26;;;;;;;25.30;15.20;;;6.90;90.60;;;;;;5092139;28;20583;-66
2021/01/22 02:13:54;;;;;;;24.73;13.38;;;7.00;90.40;;;;;;5093631;28;20024;-66
2021/01/22 02:16:21;;;;;;;22.52;13.07;;;7.00;90.30;;;;;;5093744;28;20031;-66
2021/01/22 02:18:50;;;;;;;22.25;13.13;;;7.00;90.30;;;;;;5093273;28;20024;-63
2021/01/22 02:21:34;;;;;;;20.35;12.57;;;6.90;90.20;;;;;;5093778;28;20031;-63
2021/01/22 02:24:06;;;;;;;22.80;13.27;;;7.00;90.10;;;;;;5092651;28;20111;-66
2021/01/22 02:26:31;;;;;;;22.25;14.05;;;7.00;90.60;;;;;;5092969;28;20032;-67
2021/01/22 02:29:03;;;;;;;24.13;14.38;;;7.00;90.80;;;;;;5091803;28;20028;-67
2021/01/22 02:31:32;;;;;;;23.35;13.55;;;6.90;90.50;;;;;;5093533;28;20054;-64
2021/01/22 02:34:03;;;;;;;23.77;13.55;;;6.90;90.30;;;;;;5091903;28;20028;-65
2021/01/22 02:36:33;;;;;;;21.10;12.23;;;6.80;90.70;;;;;;5092235;28;20024;-65
2021/01/22 02:39:01;;;;;;;19.80;11.57;;;6.80;90.40;;;;;;5092410;28;20047;-65
2021/01/22 02:41:29;;;;;;;19.52;11.77;;;6.90;90.40;;;;;;5093081;28;20024;-64
2021/01/22 02:43:56;;;;;;;22.33;10.98;;;6.80;90.40;;;;;;5092073;28;20115;-64
2021/01/22 02:46:23;;;;;;;20.50;11.02;;;6.90;90.20;;;;;;5093072;28;20035;-67
2021/01/22 02:48:49;;;;;;;19.08;11.23;;;6.90;90.30;;;;;;5093183;28;20030;-67
2021/01/22 02:51:15;;;;;;;20.17;9.68;;;6.90;90.60;;;;;;5092553;28;20514;-65
2021/01/22 02:53:41;;;;;;;16.75;9.45;;;6.90;90.10;;;;;;5093259;28;20033;-63
2021/01/22 02:56:18;;;;;;;15.80;9.93;;;6.90;90.10;;;;;;5092022;28;20119;-66
2021/01/22 02:58:52;;;;;;;17.15;9.85;;;7.00;90.30;;;;;;5096770;28;20020;-65
2021/01/22 03:01:24;;;;;;;;;;;6.90;90.50;;;;;;5096916;28;20030;-67
2021/01/22 03:04:10;;;;;;;17.48;9.15;;;6.90;90.30;;;;;;5097482;28;19904;-64
2021/01/22 03:06:44;;;;;;;19.13;9.50;;;6.80;90.20;;;;;;5095533;28;20081;-66
2021/01/22 03:09:19;;;;;;;23.17;11.30;;;6.80;90.00;;;;;;5096488;28;20115;-67
2021/01/22 03:11:50;;;;;;;19.40;9.98;;;6.80;90.10;;;;;;5096584;28;20044;-67
2021/01/22 03:14:18;;;;;;;18.10;10.43;;;6.80;90.60;;;;;;5096464;28;20027;-65
2021/01/22 03:16:44;;;;;;;45.85;23.30;;;6.80;90.10;;;;;;5096885;28;20027;-66
2021/01/22 03:19:10;;;;;;;28.88;16.15;;;6.80;90.20;;;;;;5095232;28;20050;-68
2021/01/22 03:21:35;;;;;;;24.65;14.07;;;6.70;90.10;;;;;;5094866;28;20024;-63
2021/01/22 03:24:01;;;;;;;105.00;53.35;;;6.70;90.70;;;;;;5095172;28;20024;-62
2021/01/22 03:26:27;;;;;;;66.78;34.28;;;6.60;90.50;;;;;;5096644;28;20085;-66
2021/01/22 03:28:53;;;;;;;79.72;41.83;;;6.60;90.40;;;;;;5096011;28;20024;-65
2021/01/22 03:31:18;;;;;;;99.68;50.47;;;6.50;90.30;;;;;;5095249;28;20137;-66
2021/01/22 03:33:47;;;;;;;103.70;50.58;;;6.50;91.00;;;;;;5095940;28;20028;-64
2021/01/22 03:36:15;;;;;;;90.25;43.95;;;6.50;90.70;;;;;;5095890;28;20020;-67
2021/01/22 03:38:42;;;;;;;88.85;44.08;;;6.40;91.10;;;;;;5094835;28;20028;-64
2021/01/22 03:41:07;;;;;;;57.80;30.30;;;6.40;91.00;;;;;;5094824;28;20020;-68
2021/01/22 03:43:33;;;;;;;32.13;16.08;;;6.40;91.10;;;;;;5094829;28;20024;-64
2021/01/22 03:45:59;;;;;;;49.75;25.17;;;6.40;90.60;;;;;;5094714;28;20492;-66
2021/01/22 03:48:25;;;;;;;36.88;17.38;;;6.50;90.60;;;;;;5096009;28;20032;-65
2021/01/22 03:50:51;;;;;;;65.72;25.92;;;6.40;90.50;;;;;;5095293;28;20043;-65
2021/01/22 03:53:16;;;;;;;39.67;16.42;;;6.50;90.50;;;;;;5094594;28;20034;-65
2021/01/22 03:55:42;;;;;;;24.17;12.93;;;6.50;90.30;;;;;;5095400;28;20066;-64
2021/01/22 03:58:10;;;;;;;32.78;12.75;;;6.60;90.30;;;;;;5095464;28;20457;-65
2021/01/22 04:00:36;;;;;;;34.13;14.13;;;6.60;90.20;;;;;;5094440;28;20385;-65
2021/01/22 04:03:01;;;;;;;28.58;13.05;;;6.60;90.10;;;;;;5094420;28;20031;-67
2021/01/22 04:05:27;;;;;;;53.80;22.00;;;6.70;90.20;;;;;;5095369;28;20028;-67
2021/01/22 04:07:53;;;;;;;49.80;23.73;;;6.60;90.10;;;;;;5094281;28;20068;-65
2021/01/22 04:10:19;;;;;;;34.97;17.58;;;6.60;90.20;;;;;;5093810;28;20113;-64
2021/01/22 04:12:44;;;;;;;23.85;13.23;;;6.60;90.10;;;;;;5095087;28;20362;-63
2021/01/22 04:15:11;;;;;;;20.60;11.98;;;6.60;90.20;;;;;;5095433;28;20111;-65
2021/01/22 04:17:37;;;;;;;16.42;9.80;;;6.70;90.10;;;;;;5094044;28;20141;-65
2021/01/22 04:20:04;;;;;;;16.83;9.13;;;6.70;89.80;;;;;;5092437;28;20039;-65
2021/01/22 04:22:30;;;;;;;14.02;8.27;;;6.70;89.60;;;;;;5094692;28;20382;-68
2021/01/22 04:24:56;;;;;;;13.25;7.13;;;6.70;89.70;;;;;;5093786;28;20020;-65
2021/01/22 04:27:21;;;;;;;17.33;11.15;;;6.70;89.60;;;;;;5094864;28;20252;-68
2021/01/22 04:29:47;;;;;;;18.75;11.60;;;6.70;89.60;;;;;;5093860;28;20025;-67
2021/01/22 04:32:13;;;;;;;26.98;16.20;;;6.80;89.60;;;;;;5094792;28;20117;-65
2021/01/22 04:34:39;;;;;;;30.52;19.05;;;6.70;89.90;;;;;;5095051;28;20020;-65
2021/01/22 04:37:04;;;;;;;16.58;10.93;;;6.70;89.70;;;;;;5093734;28;20038;-65
2021/01/22 04:39:32;;;;;;;15.55;7.90;;;6.70;89.60;;;;;;5093299;28;20043;-66
2021/01/22 04:41:59;;;;;;;14.70;7.28;;;6.70;89.90;;;;;;5094934;28;20020;-65
2021/01/22 04:44:25;;;;;;;17.00;7.15;;;6.70;89.60;;;;;;5094867;28;20172;-64
2021/01/22 04:46:52;;;;;;;12.55;6.85;;;6.70;89.80;;;;;;5094660;28;20042;-64
2021/01/22 04:49:20;;;;;;;13.98;7.10;;;6.70;89.70;;;;;;5094735;28;20101;-66
2021/01/22 04:51:46;;;;;;;14.40;7.30;;;6.60;89.70;;;;;;5094480;28;20028;-65
2021/01/22 04:54:36;;;;;;;15.27;7.75;;;6.70;89.90;;;;;;5093144;28;20061;-66
2021/01/22 04:57:03;;;;;;;15.02;7.85;;;6.70;89.80;;;;;;5095169;28;20048;-68
2021/01/22 04:59:37;;;;;;;18.52;10.25;;;6.70;89.80;;;;;;5093916;28;20054;-68
2021/01/22 05:02:04;;;;;;;20.90;10.73;;;6.60;90.20;;;;;;5093324;28;20070;-67
2021/01/22 05:04:30;;;;;;;20.75;11.25;;;6.60;90.10;;;;;;5094569;28;20085;-65
2021/01/22 05:06:57;;;;;;;22.00;12.13;;;6.60;90.20;;;;;;5092860;28;20024;-68
2021/01/22 05:09:24;;;;;;;18.73;10.40;;;6.60;90.20;;;;;;5093099;28;20130;-66
2021/01/22 05:11:54;;;;;;;22.48;11.90;;;6.50;90.10;;;;;;5094354;28;20373;-67
2021/01/22 05:14:20;;;;;;;31.98;17.83;;;6.50;90.50;;;;;;5094338;28;20373;-68
2021/01/22 05:17:07;;;;;;;61.30;30.52;;;6.50;90.40;;;;;;5094029;28;20035;-66
2021/01/22 05:19:33;;;;;;;81.53;38.17;;;6.40;90.40;;;;;;5093866;28;20057;-66
2021/01/22 05:22:01;;;;;;;71.72;35.17;;;6.50;90.50;;;;;;5093634;28;20457;-66
2021/01/22 05:24:28;;;;;;;59.25;30.50;;;6.40;90.80;;;;;;5094205;28;20024;-66
2021/01/22 05:27:08;;;;;;;53.17;26.70;;;6.40;90.50;;;;;;5092782;28;20020;-67
2021/01/22 05:29:36;;;;;;;78.07;43.97;;;6.40;90.60;;;;;;5094099;28;20042;-64
2021/01/22 05:32:22;;;;;;;50.90;30.95;;;6.30;90.70;;;;;;5093390;28;20373;-66
2021/01/22 05:34:48;;;;;;;79.30;40.35;;;6.30;90.70;;;;;;5092928;28;20338;-66
2021/01/22 05:37:14;;;;;;;65.03;33.95;;;6.30;90.70;;;;;;5093978;28;20122;-66
2021/01/22 05:39:39;;;;;;;61.08;32.08;;;6.30;90.80;;;;;;5092744;28;20028;-66
2021/01/22 05:42:07;;;;;;;45.10;28.90;;;6.30;90.70;;;;;;5092264;28;20019;-66
2021/01/22 05:44:34;;;;;;;36.80;21.58;;;6.30;90.90;;;;;;5092674;28;20028;-65
2021/01/22 05:47:02;;;;;;;44.38;24.35;;;6.40;90.90;;;;;;5093905;28;20042;-65
2021/01/22 05:49:28;;;;;;;62.03;27.50;;;6.40;90.90;;;;;;5093491;28;20028;-66
2021/01/22 05:51:54;;;;;;;36.88;20.40;;;6.40;90.80;;;;;;5093868;28;20086;-66
2021/01/22 05:54:36;;;;;;;66.25;34.80;;;6.40;90.70;;;;;;5093781;28;20056;-68
2021/01/22 05:57:03;;;;;;;59.92;29.65;;;6.30;91.40;;;;;;5093447;28;20024;-67
2021/01/22 05:59:28;;;;;;;43.58;23.27;;;6.30;91.00;;;;;;5093425;28;20052;-65
2021/01/22 06:01:54;;;;;;;38.90;20.65;;;6.20;91.20;;;;;;5092507;28;20028;-69
2021/01/22 06:04:20;;;;;;;36.15;20.10;;;6.20;91.10;;;;;;5093156;28;20101;-68
2021/01/22 06:06:46;;;;;;;340.33;135.93;;;6.10;91.30;;;;;;5092832;28;20027;-66
2021/01/22 06:09:11;;;;;;;58.05;33.95;;;6.00;91.70;;;;;;5093240;28;20393;-65
2021/01/22 06:11:39;;;;;;;55.70;35.33;;;6.00;91.60;;;;;;5093623;28;20032;-66
2021/01/22 06:14:07;;;;;;;38.83;22.48;;;6.10;91.60;;;;;;5093598;28;20016;-67
2021/01/22 06:16:34;;;;;;;40.20;23.48;;;6.10;91.60;;;;;;5093303;28;20029;-65
2021/01/22 06:19:08;;;;;;;47.90;27.02;;;6.10;91.50;;;;;;5093328;28;20056;-66
2021/01/22 06:21:37;;;;;;;46.92;26.17;;;6.20;91.60;;;;;;5092344;28;20028;-66
2021/01/22 06:24:05;;;;;;;54.33;29.02;;;6.20;91.60;;;;;;5091958;28;20021;-67
2021/01/22 06:26:34;;;;;;;48.75;27.15;;;6.20;91.60;;;;;;5093425;28;20098;-65
2021/01/22 06:29:02;;;;;;;43.00;26.83;;;6.30;91.60;;;;;;5093131;28;20028;-66
2021/01/22 06:31:29;;;;;;;45.47;28.30;;;6.30;91.30;;;;;;5093950;28;20036;-65
2021/01/22 06:33:56;;;;;;;44.60;27.10;;;6.30;91.70;;;;;;5096122;28;20160;-67
2021/01/22 06:36:22;;;;;;;43.13;27.83;;;6.40;91.40;;;;;;5096684;28;20024;-67
2021/01/22 06:38:52;;;;;;;45.50;28.45;;;6.40;91.60;;;;;;5096941;28;20024;-67
2021/01/22 06:41:24;;;;;;;48.30;28.13;;;6.40;91.30;;;;;;5097396;28;20021;-64
2021/01/22 06:43:51;;;;;;;48.13;27.83;;;6.40;91.10;;;;;;5098137;28;20028;-65
2021/01/22 06:46:19;;;;;;;57.85;33.20;;;6.40;91.20;;;;;;5095591;28;20062;-66
2021/01/22 06:48:58;;;;;;;73.65;40.35;;;6.50;91.10;;;;;;5095816;28;20031;-64
2021/01/22 06:51:26;;;;;;;75.45;42.53;;;6.50;91.70;;;;;;5097119;28;20035;-68
2021/01/22 06:54:08;;;;;;;56.63;32.03;;;6.50;91.20;;;;;;5096795;28;20542;-64
2021/01/22 06:56:54;;;;;;;58.65;27.92;;;6.60;91.10;;;;;;5094161;28;20029;-65
2021/01/22 06:59:20;;;;;;;52.08;27.60;;;6.60;91.40;;;;;;5079805;28;20051;-70
2021/01/22 07:01:47;;;;;;;45.45;26.45;;;6.60;91.40;;;;;;5096951;28;20028;-67
2021/01/22 07:04:31;;;;;;;52.90;30.88;;;6.80;91.20;;;;;;5096841;28;20069;-65
2021/01/22 07:07:02;;;;;;;55.17;30.17;;;6.90;91.00;;;;;;5095325;28;20468;-65
2021/01/22 07:09:47;;;;;;;48.83;27.25;;;6.90;90.90;;;;;;5096751;28;20487;-64
2021/01/22 07:12:35;;;;;;;47.60;25.70;;;7.00;90.60;;;;;;5096391;28;20024;-64
2021/01/22 07:15:01;;;;;;;49.80;26.25;;;7.10;90.60;;;;;;5096658;28;20024;-65
2021/01/22 07:17:30;;;;;;;45.53;25.33;;;7.20;90.60;;;;;;5096298;28;20028;-67
2021/01/22 07:20:09;;;;;;;74.63;42.20;;;7.30;90.40;;;;;;5094965;28;20404;-64
2021/01/22 07:22:54;;;;;;;55.80;28.95;;;7.40;90.20;;;;;;5096494;28;20031;-66
2021/01/22 07:25:32;;;;;;;52.03;28.63;;;7.50;90.10;;;;;;5096696;28;20034;-64
2021/01/22 07:28:20;;;;;;;64.45;30.25;;;7.60;90.00;;;;;;5095796;28;20036;-64
2021/01/22 07:30:46;;;;;;;44.95;24.00;;;7.60;89.70;;;;;;5094982;28;20032;-68
2021/01/22 07:33:29;;;;;;;46.28;26.13;;;7.70;90.00;;;;;;5095697;28;20031;-66
2021/01/22 07:36:11;;;;;;;38.30;23.90;;;7.70;90.00;;;;;;5094957;28;20052;-64
2021/01/22 07:38:39;;;;;;;38.30;23.83;;;7.70;90.10;;;;;;5095776;28;20028;-65
2021/01/22 07:41:06;;;;;;;59.88;34.40;;;7.80;90.00;;;;;;5095825;28;20024;-64
2021/01/22 07:43:33;;;;;;;57.92;31.02;;;7.80;90.00;;;;;;5095993;28;20086;-64
2021/01/22 07:46:12;;;;;;;84.40;46.25;;;7.80;90.20;;;;;;5095938;28;20028;-66
2021/01/22 07:48:39;;;;;;;67.25;37.10;;;7.90;90.40;;;;;;5094444;28;20020;-65
2021/01/22 07:51:30;;;;;;;56.17;32.53;;;7.90;90.20;;;;;;5095850;28;20024;-65
2021/01/22 07:53:57;;;;;;;56.38;32.80;;;8.00;89.80;;;;;;5095220;28;20031;-65
2021/01/22 07:56:31;;;;;;;56.45;32.92;;;8.10;89.20;;;;;;5094194;28;20030;-66
2021/01/22 07:58:56;;;;;;;56.70;30.30;;;8.10;88.80;;;;;;5094178;28;20115;-64
2021/01/22 08:01:23;;;;;;;70.18;39.95;;;8.20;88.60;;;;;;5092593;28;20143;-66
2021/01/22 08:03:49;;;;;;;72.90;34.28;;;8.20;88.80;;;;;;5092710;28;20023;-65
2021/01/22 08:06:15;;;;;;;55.30;27.55;;;8.20;89.20;;;;;;5093789;28;20028;-65
2021/01/22 08:08:41;;;;;;;46.08;24.13;;;8.30;88.80;;;;;;5093624;28;20028;-66
2021/01/22 08:11:19;;;;;;;45.65;26.92;;;8.30;89.00;;;;;;5094067;28;20028;-66
2021/01/22 08:13:45;;;;;;;35.03;21.50;;;8.50;87.90;;;;;;5094536;28;20074;-68
2021/01/22 08:16:12;;;;;;;39.72;22.42;;;8.60;87.30;;;;;;5094518;28;20028;-67
2021/01/22 08:18:44;;;;;;;41.30;24.42;;;8.70;86.80;;;;;;5095145;28;20376;-66
2021/01/22 08:21:10;;;;;;;52.13;28.77;;;8.70;86.90;;;;;;5095971;28;20039;-67
2021/01/22 08:23:36;;;;;;;51.40;27.40;;;8.80;87.10;;;;;;5093966;28;20024;-66
2021/01/22 08:26:02;;;;;;;43.72;24.27;;;8.80;86.80;;;;;;5093968;28;20354;-68
2021/01/22 08:28:28;;;;;;;31.75;19.13;;;8.90;87.40;;;;;;5095112;28;20027;-68
2021/01/22 08:30:54;;;;;;;27.90;16.95;;;8.90;87.40;;;;;;5093734;28;20082;-64
2021/01/22 08:33:25;;;;;;;27.15;18.05;;;9.00;87.30;;;;;;5095089;28;20036;-68
2021/01/22 08:35:51;;;;;;;34.55;19.83;;;9.10;86.70;;;;;;5095170;28;20104;-68
2021/01/22 08:38:17;;;;;;;33.85;17.48;;;9.20;86.20;;;;;;5094745;28;20110;-65
2021/01/22 08:40:46;;;;;;;36.58;18.65;;;9.20;86.80;;;;;;5093672;28;20540;-66
2021/01/22 08:43:12;;;;;;;59.35;28.73;;;9.20;86.70;;;;;;5093921;28;20480;-68
2021/01/22 08:45:39;;;;;;;49.72;25.33;;;9.30;88.60;;;;;;5094807;28;20059;-67
2021/01/22 08:48:06;;;;;;;46.42;22.70;;;9.40;87.30;;;;;;5092738;28;20426;-71
2021/01/22 08:50:33;;;;;;;49.88;27.52;;;9.40;86.80;;;;;;5094342;28;20032;-65
2021/01/22 08:53:10;;;;;;;59.30;30.33;;;9.50;86.50;;;;;;5093810;28;20024;-66
2021/01/22 08:55:36;;;;;;;53.58;27.85;;;9.60;86.10;;;;;;5090929;28;20073;-68
2021/01/22 08:58:03;;;;;;;34.85;19.30;;;9.60;86.50;;;;;;5092820;28;20020;-67
2021/01/22 09:00:29;;;;;;;36.95;20.40;;;9.60;86.60;;;;;;5093195;28;20052;-68
2021/01/22 09:02:56;;;;;;;38.70;20.80;;;9.60;87.10;;;;;;5092887;28;20469;-66
2021/01/22 09:05:22;;;;;;;44.83;24.95;;;9.60;87.00;;;;;;5093010;28;20115;-69
2021/01/22 09:08:12;;;;;;;39.63;22.45;;;9.60;87.30;;;;;;5091824;28;20377;-67
2021/01/22 09:10:42;;;;;;;48.83;26.00;;;9.70;87.20;;;;;;5090416;28;20085;-67
2021/01/22 09:13:10;;;;;;;48.75;28.75;;;9.70;87.10;;;;;;5089809;28;20527;-67
2021/01/22 09:15:35;;;;;;;42.95;24.88;;;9.70;87.10;;;;;;5093010;28;20099;-70
2021/01/22 09:18:02;;;;;;;43.08;25.73;;;9.80;88.70;;;;;;5094222;28;20104;-70
2021/01/22 09:20:28;;;;;;;52.67;30.70;;;9.80;88.20;;;;;;5094007;28;20500;-72
2021/01/22 09:22:55;;;;;;;44.40;25.55;;;9.80;88.50;;;;;;5094327;28;20541;-72
2021/01/22 09:25:26;;;;;;;37.50;24.73;;;9.90;87.60;;;;;;5092649;28;20131;-72
2021/01/22 09:27:52;;;;;;;35.10;21.50;;;10.00;87.20;;;;;;5094245;28;20027;-73
2021/01/22 09:30:21;;;;;;;36.75;19.50;;;10.10;86.50;;;;;;5094036;28;20423;-74
2021/01/22 09:32:51;;;;;;;37.22;19.08;;;10.20;85.20;;;;;;5092537;28;20032;-74
2021/01/22 09:35:18;;;;;;;37.65;20.42;;;10.30;85.30;;;;;;5092812;28;20028;-71
2021/01/22 09:37:44;;;;;;;50.50;25.15;;;10.50;84.90;;;;;;5093772;28;20026;-72
2021/01/22 09:40:11;;;;;;;52.45;27.33;;;10.60;84.80;;;;;;5093717;28;20107;-72
2021/01/22 09:42:37;;;;;;;58.72;31.08;;;10.90;83.60;;;;;;5093624;28;20024;-73
2021/01/22 09:45:08;;;;;;;50.75;27.35;;;11.00;82.90;;;;;;5092634;28;20028;-73
2021/01/22 09:47:34;;;;;;;42.42;23.67;;;11.10;82.70;;;;;;5093586;28;20024;-73
2021/01/22 09:50:00;;;;;;;59.13;32.00;;;11.20;82.70;;;;;;5092546;28;20147;-71
2021/01/22 09:52:26;;;;;;;50.55;24.73;;;11.30;81.90;;;;;;5093572;28;20509;-71
2021/01/22 09:54:52;;;;;;;43.50;23.67;;;11.50;81.50;;;;;;5092219;28;20035;-68
2021/01/22 09:57:18;;;;;;;38.70;21.48;;;11.60;81.20;;;;;;5092182;28;20055;-71
2021/01/22 09:59:43;;;;;;;56.53;28.35;;;11.80;80.50;;;;;;5093304;28;20072;-70
2021/01/22 10:02:09;;;;;;;60.75;29.08;;;11.90;80.70;;;;;;5092105;28;20028;-72
2021/01/22 10:04:36;;;;;;;126.72;55.22;;;12.00;80.50;;;;;;5092334;28;20027;-70
2021/01/22 10:07:02;;;;;;;89.85;37.00;;;12.10;80.20;;;;;;5096558;28;20020;-70
2021/01/22 10:09:28;;;;;;;42.50;19.80;;;12.20;79.80;;;;;;5096446;28;20123;-71
2021/01/22 10:11:54;;;;;;;56.45;25.55;;;12.30;79.50;;;;;;5097556;28;20109;-68
2021/01/22 10:14:20;;;;;;;80.22;37.25;;;12.20;79.80;;;;;;5096155;28;20083;-68
2021/01/22 10:16:46;;;;;;;70.68;43.72;;;12.20;79.90;;;;;;5097727;28;20457;-68
2021/01/22 10:19:11;;;;;;;57.15;32.45;;;12.20;80.20;;;;;;5096416;28;20038;-70
2021/01/22 10:21:37;;;;;;;54.97;32.10;;;12.20;78.70;;;;;;5097391;28;20024;-70
2021/01/22 10:24:03;;;;;;;51.35;29.30;;;12.30;78.80;;;;;;5096344;28;20024;-69
2021/01/22 10:26:29;;;;;;;42.90;24.23;;;12.50;78.90;;;;;;5097175;28;20032;-69
2021/01/22 10:28:55;;;;;;;67.40;35.33;;;12.70;79.80;;;;;;5097047;28;20081;-69
2021/01/22 10:31:21;;;;;;;38.95;21.88;;;12.80;77.30;;;;;;5097483;28;20039;-69
2021/01/22 10:33:47;;;;;;;29.33;17.45;;;12.70;77.90;;;;;;5097444;28;20137;-70
2021/01/22 10:36:15;;;;;;;69.47;40.63;;;12.70;78.10;;;;;;5095799;28;20115;-70
2021/01/22 10:38:41;;;;;;;43.72;24.40;;;12.90;78.70;;;;;;5096116;28;20411;-69
2021/01/22 10:41:07;;;;;;;51.17;27.55;;;13.00;78.60;;;;;;5096012;28;20034;-70
2021/01/22 10:43:33;;;;;;;43.63;23.67;;;13.10;78.10;;;;;;5095703;28;20032;-72
2021/01/22 10:45:59;;;;;;;29.20;16.02;;;13.30;77.20;;;;;;5095942;28;20423;-71
2021/01/22 10:48:25;;;;;;;31.20;17.60;;;13.70;75.30;;;;;;5097729;28;20413;-71
2021/01/22 10:50:51;;;;;;;43.15;23.10;;;14.30;73.60;;;;;;5095422;28;20066;-72
2021/01/22 10:53:21;;;;;;;30.77;15.98;;;14.70;75.10;;;;;;5095792;28;20039;-71
2021/01/22 10:55:47;;;;;;;29.65;19.10;;;14.80;68.40;;;;;;5097359;28;20112;-70
2021/01/22 10:58:13;;;;;;;31.50;18.98;;;14.80;70.40;;;;;;5096281;28;20381;-69
2021/01/22 11:00:39;;;;;;;40.05;22.45;;;14.80;68.00;;;;;;5094013;28;20052;-70
2021/01/22 11:03:05;;;;;;;53.00;28.42;;;14.70;69.40;;;;;;5095139;28;20077;-71
2021/01/22 11:05:32;;;;;;;42.00;23.45;;;14.50;68.40;;;;;;5095041;28;20036;-71
2021/01/22 11:07:58;;;;;;;41.85;23.30;;;14.50;70.50;;;;;;5092529;28;20107;-70
2021/01/22 11:10:24;;;;;;;65.30;37.63;;;14.40;69.40;;;;;;5094938;28;20401;-72
2021/01/22 11:12:50;;;;;;;58.92;33.13;;;14.40;69.90;;;;;;5095493;28;20028;-71
2021/01/22 11:15:16;;;;;;;34.45;21.30;;;14.50;72.20;;;;;;5095236;28;20020;-71
2021/01/22 11:17:42;;;;;;;32.58;18.83;;;14.50;71.40;;;;;;5093815;28;20647;-72
2021/01/22 11:20:09;;;;;;;30.63;18.42;;;14.60;71.70;;;;;;5094784;28;20441;-70
2021/01/22 11:22:35;;;;;;;30.67;15.23;;;15.10;70.20;;;;;;5092110;28;20039;-71
2021/01/22 11:25:02;;;;;;;28.05;13.82;;;15.50;67.20;;;;;;5095279;28;20513;-69
2021/01/22 11:27:28;;;;;;;27.65;15.85;;;15.70;67.50;;;;;;5093737;28;20377;-72
2021/01/22 11:29:54;;;;;;;21.08;12.20;;;15.80;65.00;;;;;;5092469;28;20031;-68
2021/01/22 11:32:20;;;;;;;30.60;17.27;;;15.90;65.10;;;;;;5095678;28;20055;-71
2021/01/22 11:34:45;;;;;;;31.75;18.17;;;15.90;64.30;;;;;;5094949;28;20461;-71
2021/01/22 11:37:12;;;;;;;32.25;18.50;;;16.00;63.80;;;;;;5096305;28;20028;-69
2021/01/22 11:39:37;;;;;;;21.50;10.43;;;15.90;64.30;;;;;;5095471;28;20473;-70
2021/01/22 11:42:05;;;;;;;26.70;13.60;;;15.80;64.10;;;;;;5095132;28;20020;-69
2021/01/22 11:44:31;;;;;;;24.15;13.88;;;15.80;65.20;;;;;;5095125;28;20028;-71
2021/01/22 11:46:57;;;;;;;29.63;16.55;;;15.90;65.70;;;;;;5095768;28;20101;-70
2021/01/22 11:49:23;;;;;;;32.85;12.75;;;16.00;65.20;;;;;;5094649;28;20468;-68
2021/01/22 11:51:48;;;;;;;26.42;14.73;;;16.20;64.60;;;;;;5094680;28;20073;-67
2021/01/22 11:54:14;;;;;;;30.58;16.80;;;16.40;64.70;;;;;;5094296;28;20107;-68
2021/01/22 11:56:40;;;;;;;19.27;10.23;;;16.50;65.20;;;;;;5095567;28;20105;-69
2021/01/22 11:59:08;;;;;;;27.92;13.90;;;16.50;63.60;;;;;;5094154;28;20044;-71
2021/01/22 12:01:34;;;;;;;22.60;12.70;;;16.60;64.10;;;;;;5095849;28;20368;-69
2021/01/22 12:04:00;;;;;;;29.20;13.63;;;16.80;64.40;;;;;;5095895;28;20024;-68
2021/01/22 12:06:26;;;;;;;34.58;21.90;;;16.90;63.90;;;;;;5095322;28;20030;-69
2021/01/22 12:08:51;;;;;;;26.85;15.10;;;17.10;65.00;;;;;;5095553;28;20373;-69
2021/01/22 12:11:17;;;;;;;23.67;14.88;;;17.20;62.20;;;;;;5095226;28;20035;-69
2021/01/22 12:13:43;;;;;;;23.42;13.95;;;17.30;62.00;;;;;;5095149;28;20043;-68
2021/01/22 12:16:09;;;;;;;14.95;9.05;;;17.30;60.90;;;;;;5094207;28;20115;-69
2021/01/22 12:18:34;;;;;;;19.58;11.52;;;17.50;62.10;;;;;;5094470;28;20031;-68
2021/01/22 12:21:00;;;;;;;16.75;10.75;;;17.70;63.20;;;;;;5095112;28;20028;-67
2021/01/22 12:23:26;;;;;;;17.85;10.57;;;17.80;60.70;;;;;;5094066;28;20021;-69
2021/01/22 12:25:52;;;;;;;49.42;30.05;;;17.80;59.90;;;;;;5094679;28;20032;-67
2021/01/22 12:28:18;;;;;;;23.15;10.18;;;17.50;61.20;;;;;;5093530;28;20028;-69
2021/01/22 12:30:44;;;;;;;16.27;9.50;;;17.20;61.00;;;;;;5094350;28;20031;-68
2021/01/22 12:33:10;;;;;;;28.77;17.50;;;17.00;62.10;;;;;;5093805;28;20028;-68
2021/01/22 12:35:36;;;;;;;47.55;28.67;;;16.80;63.50;;;;;;5093453;28;20369;-69
2021/01/22 12:38:02;;;;;;;29.25;18.02;;;16.70;62.30;;;;;;5093744;28;20031;-67